Time;durP1;ratioP1;P1;durP2;ratioP2;P2;SDS_P1;SDS_P2;PMS_P1;PMS_P2;Temp;Humidity;BMP_temperature;BMP_pressure;BME280_temperature;BME280_humidity;BME280_pressure;Samples;Min_cycle;Max_cycle;Signal;HPM_P1;HPM_P2
2024/04/02 00:02:07;;;;;;;4.07;3.77;;;10.60;21.80;;;;;;6287803;22;20427;-85
2024/04/02 00:04:34;;;;;;;3.80;3.20;;;10.60;1.00;;;;;;6288090;22;20382;-85
2024/04/02 00:06:59;;;;;;;5.10;2.90;;;10.70;1.00;;;;;;6284753;22;20205;-85
2024/04/02 00:09:28;;;;;;;3.30;3.10;;;10.50;1.00;;;;;;6285780;22;20389;-85
2024/04/02 00:11:54;;;;;;;2.47;2.37;;;10.60;1.00;;;;;;6285861;22;20742;-85
2024/04/02 00:14:20;;;;;;;4.47;3.67;;;10.60;1.00;;;;;;6288639;22;20383;-85
2024/04/02 00:16:46;;;;;;;3.07;2.87;;;10.60;1.00;;;;;;6285509;22;20444;-85
2024/04/02 00:19:14;;;;;;;3.00;2.70;;;10.60;1.00;;;;;;6286083;22;20382;-85
2024/04/02 00:21:40;;;;;;;2.40;2.30;;;10.60;1.00;;;;;;6284530;22;20647;-85
2024/04/02 00:24:07;;;;;;;2.80;2.60;;;10.70;1.00;;;;;;6285389;22;20379;-85
2024/04/02 00:26:34;;;;;;;2.40;2.20;;;10.80;1.00;;;;;;6283682;22;20228;-85
2024/04/02 00:29:01;;;;;;;2.13;2.03;;;10.90;1.00;;;;;;6285964;22;20385;-85
2024/04/02 00:31:27;;;;;;;2.53;2.23;;;10.80;1.00;;;;;;6286325;22;20406;-85
2024/04/02 00:33:54;;;;;;;2.00;1.90;;;10.80;1.00;;;;;;6286852;22;20431;-85
2024/04/02 00:36:20;;;;;;;2.40;2.03;;;10.80;1.00;;;;;;6289849;22;20375;-85
2024/04/02 00:38:47;;;;;;;2.13;2.03;;;10.90;1.00;;;;;;6290596;22;20400;-85
2024/04/02 00:41:12;;;;;;;3.17;1.97;;;10.90;1.00;;;;;;6286930;22;20193;-85
2024/04/02 00:43:41;;;;;;;3.47;2.90;;;10.90;1.00;;;;;;6287031;22;20690;-85
2024/04/02 00:46:07;;;;;;;2.10;2.00;;;10.90;1.00;;;;;;6287081;22;20938;-85
2024/04/02 00:48:34;;;;;;;2.60;2.20;;;11.00;1.00;;;;;;6289070;22;20399;-84
2024/04/02 00:51:00;;;;;;;4.13;2.37;;;11.00;1.00;;;;;;6288931;22;20448;-85
2024/04/02 00:53:27;;;;;;;2.40;2.20;;;11.00;1.00;;;;;;6287313;22;20379;-85
2024/04/02 00:55:53;;;;;;;2.80;2.60;;;11.00;1.00;;;;;;6288457;22;20396;-85
2024/04/02 00:58:20;;;;;;;3.03;2.83;;;11.10;1.00;;;;;;6291647;22;20439;-86
2024/04/02 01:00:49;;;;;;;4.73;3.40;;;11.10;1.00;;;;;;6287552;22;20432;-85
2024/04/02 01:03:17;;;;;;;3.17;2.87;;;11.00;1.00;;;;;;6294828;22;20383;-85
2024/04/02 01:05:43;;;;;;;4.20;3.10;;;11.00;1.00;;;;;;6299244;22;20485;-84
2024/04/02 01:08:11;;;;;;;3.20;2.70;;;11.10;1.00;;;;;;6300034;22;20432;-84
2024/04/02 01:10:38;;;;;;;5.33;3.90;;;11.00;1.00;;;;;;6290604;22;20472;-84
2024/04/02 01:13:05;;;;;;;3.27;2.97;;;10.90;1.00;;;;;;6289412;22;20370;-84
2024/04/02 01:15:31;;;;;;;3.30;3.00;;;10.90;1.00;;;;;;6289155;22;20396;-84
2024/04/02 01:17:59;;;;;;;3.13;2.93;;;11.00;1.00;;;;;;6287541;22;20720;-84
2024/04/02 01:20:25;;;;;;;4.27;3.00;;;11.00;1.00;;;;;;6287068;22;20390;-84
2024/04/02 01:22:52;;;;;;;3.03;2.80;;;10.90;1.00;;;;;;6287888;22;20407;-84
2024/04/02 01:25:22;;;;;;;4.10;3.40;;;10.90;1.00;;;;;;6287360;22;20399;-84
2024/04/02 01:27:49;;;;;;;4.17;3.30;;;10.90;1.00;;;;;;6286833;22;20415;-84
2024/04/02 01:30:15;;;;;;;3.37;3.07;;;10.90;1.00;;;;;;6292083;22;20413;-83
2024/04/02 01:32:42;;;;;;;4.37;2.60;;;10.80;1.00;;;;;;6298269;22;20483;-84
2024/04/02 01:35:08;;;;;;;3.30;3.00;;;10.80;1.00;;;;;;6289450;22;20387;-84
2024/04/02 01:37:35;;;;;;;3.33;3.13;;;10.80;1.00;;;;;;6295436;22;20497;-84
2024/04/02 01:40:00;;;;;;;3.23;3.00;;;10.70;1.00;;;;;;6301369;22;20404;-84
2024/04/02 01:42:29;;;;;;;2.30;2.20;;;10.70;1.00;;;;;;6301037;22;20375;-84
2024/04/02 01:44:56;;;;;;;3.50;3.23;;;10.70;1.00;;;;;;6300782;22;20408;-84
2024/04/02 01:47:23;;;;;;;3.30;2.57;;;10.60;1.00;;;;;;6294103;22;20418;-85
2024/04/02 01:49:49;;;;;;;3.80;3.30;;;10.60;1.00;;;;;;6286641;22;20404;-85
2024/04/02 01:52:16;;;;;;;3.80;2.80;;;10.50;1.00;;;;;;6286274;22;20370;-85
2024/04/02 01:54:41;;;;;;;3.17;2.97;;;10.50;1.00;;;;;;6287104;22;20398;-85
2024/04/02 01:57:08;;;;;;;2.50;2.30;;;10.40;1.00;;;;;;6285972;22;20420;-85
2024/04/02 01:59:35;;;;;;;2.80;2.70;;;10.40;1.00;;;;;;6285737;22;20205;-84
2024/04/02 02:02:03;;;;;;;2.70;2.50;;;10.40;1.00;;;;;;6285657;22;20408;-84
2024/04/02 02:04:28;;;;;;;2.80;2.60;;;10.40;1.00;;;;;;6287030;22;20379;-84
2024/04/02 02:06:55;;;;;;;4.23;2.90;;;10.30;1.00;;;;;;6299362;22;20437;-83
2024/04/02 02:09:21;;;;;;;2.83;2.63;;;10.20;1.00;;;;;;6299511;22;20390;-83
2024/04/02 02:11:48;;;;;;;4.13;3.83;;;10.20;1.00;;;;;;6300510;22;20363;-83
2024/04/02 02:14:14;;;;;;;3.73;3.27;;;10.10;1.00;;;;;;6306737;22;20385;-83
2024/04/02 02:16:42;;;;;;;4.43;2.10;;;10.10;1.00;;;;;;6306500;22;20420;-83
2024/04/02 02:19:08;;;;;;;2.77;2.67;;;10.00;1.00;;;;;;6305774;22;20150;-84
2024/04/02 02:21:36;;;;;;;2.90;2.70;;;9.90;1.00;;;;;;6264924;22;20405;-85
2024/04/02 02:24:02;;;;;;;3.30;3.10;;;9.90;1.00;;;;;;6292425;22;20409;-86
2024/04/02 02:26:36;;;;;;;2.80;2.60;;;9.90;1.00;;;;;;6289987;22;20561;-85
2024/04/02 02:29:02;;;;;;;4.00;2.53;;;9.90;1.00;;;;;;6288323;22;20763;-84
2024/04/02 02:31:29;;;;;;;4.63;2.77;;;9.80;1.00;;;;;;6287287;22;20449;-85
2024/04/02 02:33:56;;;;;;;2.60;2.40;;;9.80;16.50;;;;;;6288389;22;20428;-85
2024/04/02 02:36:23;;;;;;;2.83;2.60;;;9.70;40.10;;;;;;6289073;22;20426;-85
2024/04/02 02:38:49;;;;;;;2.33;2.13;;;9.70;85.50;;;;;;6298828;22;20385;-83
2024/04/02 02:41:16;;;;;;;3.50;2.30;;;9.70;78.60;;;;;;6305529;22;20376;-84
2024/04/02 02:43:42;;;;;;;3.10;2.80;;;9.70;84.00;;;;;;6289272;22;20189;-85
2024/04/02 02:46:09;;;;;;;2.33;2.17;;;9.70;99.90;;;;;;6286585;22;20897;-85
2024/04/02 02:48:34;;;;;;;2.10;2.00;;;9.60;99.90;;;;;;6286315;22;20407;-85
2024/04/02 02:51:03;;;;;;;2.33;2.13;;;9.70;99.90;;;;;;6286810;22;20400;-85
2024/04/02 02:53:29;;;;;;;3.00;2.30;;;9.60;99.90;;;;;;6286222;22;20394;-85
2024/04/02 02:55:58;;;;;;;3.47;2.10;;;9.50;99.90;;;;;;6287668;22;20396;-86
2024/04/02 02:58:24;;;;;;;2.40;2.30;;;9.50;99.90;;;;;;6286341;22;20433;-84
2024/04/02 03:00:51;;;;;;;5.53;2.70;;;9.50;99.90;;;;;;6286507;22;20734;-85
2024/04/02 03:03:17;;;;;;;2.83;2.20;;;9.50;99.90;;;;;;6285983;22;20435;-85
2024/04/02 03:05:54;;;;;;;1.90;1.80;;;9.40;99.90;;;;;;6285436;22;20404;-85
2024/04/02 03:08:22;;;;;;;6.60;2.67;;;9.40;99.90;;;;;;6285220;22;20942;-85
2024/04/02 03:10:55;;;;;;;2.50;2.30;;;9.40;99.90;;;;;;6291761;22;20395;-84
2024/04/02 03:13:23;;;;;;;2.33;2.23;;;9.40;99.90;;;;;;6305993;22;20374;-83
2024/04/02 03:15:50;;;;;;;2.27;2.17;;;9.40;99.90;;;;;;6305984;22;20366;-84
2024/04/02 03:18:16;;;;;;;2.13;1.90;;;9.30;99.90;;;;;;6305777;22;20515;-84
2024/04/02 03:20:43;;;;;;;3.27;2.40;;;9.30;99.90;;;;;;6299523;22;20859;-85
2024/04/02 03:23:10;;;;;;;2.47;2.17;;;9.30;99.90;;;;;;6288416;22;20411;-85
2024/04/02 03:25:38;;;;;;;2.50;2.30;;;9.20;99.90;;;;;;6288938;22;20392;-85
2024/04/02 03:28:05;;;;;;;2.07;1.90;;;9.20;99.90;;;;;;6288113;22;20441;-85
2024/04/02 03:30:32;;;;;;;2.30;2.20;;;9.20;99.90;;;;;;6288405;22;20409;-84
2024/04/02 03:32:58;;;;;;;2.50;2.30;;;9.30;99.90;;;;;;6288294;22;20404;-85
2024/04/02 03:35:24;;;;;;;2.27;2.10;;;9.30;99.90;;;;;;6290358;22;20465;-84
2024/04/02 03:37:51;;;;;;;5.10;2.20;;;9.30;99.90;;;;;;6287214;22;20455;-84
2024/04/02 03:40:18;;;;;;;4.10;3.00;;;9.30;99.90;;;;;;6285981;22;20379;-84
2024/04/02 03:42:46;;;;;;;3.90;2.30;;;9.30;99.90;;;;;;6287586;22;20408;-84
2024/04/02 03:45:13;;;;;;;3.00;2.80;;;9.30;99.90;;;;;;6286520;22;20399;-84
2024/04/02 03:47:39;;;;;;;2.67;2.47;;;9.30;99.90;;;;;;6289163;22;20443;-84
2024/04/02 03:50:06;;;;;;;2.73;2.53;;;9.40;99.90;;;;;;6292854;22;20367;-84
2024/04/02 03:52:32;;;;;;;2.27;2.13;;;9.40;99.90;;;;;;6297429;22;20184;-82
2024/04/02 03:54:59;;;;;;;3.30;2.37;;;9.50;99.90;;;;;;6305182;22;20396;-84
2024/04/02 03:57:25;;;;;;;2.20;2.10;;;9.60;99.90;;;;;;6301535;22;20203;-84
2024/04/02 03:59:53;;;;;;;2.50;2.30;;;9.60;99.90;;;;;;6287925;22;20408;-84
2024/04/02 04:02:19;;;;;;;3.53;2.33;;;9.60;99.90;;;;;;6289704;22;20404;-85
2024/04/02 04:04:45;;;;;;;3.13;2.47;;;9.60;99.90;;;;;;6294485;22;20454;-85
2024/04/02 04:07:11;;;;;;;2.23;2.13;;;9.60;99.90;;;;;;6287257;22;20475;-85
2024/04/02 04:09:38;;;;;;;2.17;2.07;;;9.70;99.90;;;;;;6286492;22;20401;-85
2024/04/02 04:12:05;;;;;;;2.23;2.07;;;9.70;99.90;;;;;;6286602;22;20796;-85
2024/04/02 04:14:32;;;;;;;2.97;2.70;;;9.60;99.90;;;;;;6287231;22;20413;-85
2024/04/02 04:17:00;;;;;;;2.93;2.67;;;9.70;99.90;;;;;;6286091;22;20395;-85
2024/04/02 04:19:25;;;;;;;2.50;2.40;;;9.70;99.90;;;;;;6286578;22;20493;-85
2024/04/02 04:21:52;;;;;;;3.20;2.37;;;9.70;99.90;;;;;;6286023;22;20383;-84
2024/04/02 04:24:18;;;;;;;3.00;2.80;;;9.60;99.90;;;;;;6287982;22;20678;-85
2024/04/02 04:29:31;;;;;;;5.10;2.93;;;9.60;99.90;;;;;;6305352;22;20431;-83
2024/04/02 04:32:03;;;;;;;3.13;2.93;;;9.60;99.90;;;;;;6299825;22;20353;-82
2024/04/02 04:34:49;;;;;;;3.30;3.00;;;9.50;99.90;;;;;;6302738;22;20415;-82
2024/04/02 04:37:16;;;;;;;3.53;3.33;;;9.50;1.00;;;;;;6286222;22;20392;-81
2024/04/02 04:39:48;;;;;;;3.77;3.00;;;9.50;99.90;;;;;;6261014;23;20402;-83
2024/04/02 04:45:09;;;;;;;3.53;3.10;;;9.50;1.00;;;;;;6251521;23;20360;-83
2024/04/02 04:48:15;;;;;;;4.10;3.70;;;9.50;1.00;;;;;;6259520;22;20754;-82
2024/04/02 04:50:59;;;;;;;4.53;2.83;;;9.60;1.00;;;;;;6260352;23;20410;-83
2024/04/02 04:53:42;;;;;;;3.83;3.13;;;9.60;1.00;;;;;;6255568;23;20388;-82
2024/04/02 04:56:20;;;;;;;3.40;3.10;;;9.60;1.00;;;;;;6257104;23;20405;-82
2024/04/02 04:58:48;;;;;;;4.63;3.20;;;9.80;1.00;;;;;;6255834;22;20395;-82
2024/04/02 05:01:18;;;;;;;3.63;3.33;;;9.80;1.00;;;;;;6253847;23;20389;-83
2024/04/02 05:04:02;;;;;;;3.90;3.60;;;9.80;1.00;;;;;;6252043;23;20420;-83
2024/04/02 05:06:46;;;;;;;6.57;3.90;;;9.80;1.00;;;;;;6252901;22;20444;-83
2024/04/02 05:10:16;;;;;;;3.57;3.27;;;9.90;1.00;;;;;;6251570;23;20405;-81
2024/04/02 05:16:40;;;;;;;7.10;3.97;;;9.80;1.00;;;;;;6193389;23;20397;-82
2024/04/02 05:20:05;;;;;;;3.60;3.40;;;9.80;1.00;;;;;;6193142;23;20409;-83
2024/04/02 05:22:32;;;;;;;5.77;4.10;;;9.80;1.00;;;;;;6132069;23;20892;-83
2024/04/02 05:25:28;;;;;;;6.87;5.40;;;9.80;1.00;;;;;;6135846;23;20972;-82
2024/04/02 05:50:56;;;;;;;6.50;5.03;;;10.10;99.90;;;;;;6240324;23;20364;-84
2024/04/02 05:53:22;;;;;;;7.40;6.80;;;10.20;99.90;;;;;;6257900;23;20380;-85
2024/04/02 05:55:49;;;;;;;5.60;4.37;;;10.20;99.90;;;;;;6256240;23;20433;-84
2024/04/02 05:58:15;;;;;;;5.67;4.30;;;10.20;99.90;;;;;;6256414;22;20447;-85
2024/04/02 06:00:43;;;;;;;4.70;4.30;;;10.20;99.90;;;;;;6257732;23;20470;-84
2024/04/02 06:03:09;;;;;;;8.63;5.30;;;10.30;99.90;;;;;;6264153;23;20428;-86
2024/04/02 06:05:37;;;;;;;6.57;6.07;;;10.30;99.90;;;;;;6266876;23;20375;-86
2024/04/02 06:08:05;;;;;;;6.40;5.57;;;10.30;99.90;;;;;;6259116;22;20419;-83
2024/04/02 06:10:32;;;;;;;7.97;6.30;;;10.40;99.90;;;;;;6256229;23;20397;-85
2024/04/02 06:12:57;;;;;;;5.53;4.20;;;10.40;99.90;;;;;;6255742;23;20405;-85
2024/04/02 06:15:26;;;;;;;4.53;4.23;;;10.40;99.90;;;;;;6256312;23;20383;-85
2024/04/02 06:17:52;;;;;;;5.47;5.07;;;10.50;99.90;;;;;;6259012;22;20407;-85
2024/04/02 06:20:19;;;;;;;6.33;5.13;;;10.50;99.90;;;;;;6257416;23;20401;-84
2024/04/02 06:22:45;;;;;;;8.70;4.87;;;10.60;99.90;;;;;;6269547;22;20412;-85
2024/04/02 06:25:13;;;;;;;5.70;4.93;;;10.60;99.90;;;;;;6273768;23;20359;-83
2024/04/02 06:27:41;;;;;;;6.33;5.73;;;10.60;99.90;;;;;;6271253;22;20453;-83
2024/04/02 06:30:08;;;;;;;6.33;5.73;;;10.60;92.10;;;;;;6269031;23;20440;-82
2024/04/02 06:32:34;;;;;;;8.80;5.70;;;10.70;92.90;;;;;;6265376;23;20376;-84
2024/04/02 06:35:01;;;;;;;5.37;4.87;;;10.70;80.80;;;;;;6258275;23;20393;-84
2024/04/02 06:37:27;;;;;;;6.87;4.57;;;10.70;34.60;;;;;;6262925;22;20406;-83
2024/04/02 06:39:54;;;;;;;4.10;3.70;;;10.80;73.80;;;;;;6273678;22;20389;-82
2024/04/02 06:42:21;;;;;;;4.97;4.67;;;10.90;9.30;;;;;;6265224;23;20878;-85
2024/04/02 06:44:48;;;;;;;5.23;4.73;;;11.00;1.00;;;;;;6257419;23;20405;-86
2024/04/02 06:47:15;;;;;;;5.13;3.93;;;11.10;1.00;;;;;;6257179;22;20455;-84
2024/04/02 06:49:42;;;;;;;5.30;4.03;;;11.20;1.00;;;;;;6256579;23;20402;-85
2024/04/02 06:52:08;;;;;;;7.93;4.60;;;11.20;1.00;;;;;;6257849;23;20376;-85
2024/04/02 06:54:35;;;;;;;5.53;4.67;;;11.30;1.00;;;;;;6257860;23;20443;-85
2024/04/02 06:57:01;;;;;;;5.60;4.63;;;11.30;1.00;;;;;;6257614;22;20448;-83
2024/04/02 06:59:29;;;;;;;9.13;4.23;;;11.40;1.00;;;;;;6267215;23;20887;-85
2024/04/02 07:01:55;;;;;;;4.10;3.70;;;11.40;1.00;;;;;;6268405;23;20178;-85
2024/04/02 07:04:22;;;;;;;4.47;4.03;;;11.40;1.00;;;;;;6261072;23;20412;-86
2024/04/02 07:06:48;;;;;;;5.90;4.53;;;11.40;1.00;;;;;;6258413;22;20445;-85
2024/04/02 07:09:15;;;;;;;4.20;3.47;;;11.50;1.00;;;;;;6258038;23;20451;-85
2024/04/02 07:11:43;;;;;;;4.40;4.10;;;11.60;1.00;;;;;;6256596;23;20387;-86
2024/04/02 07:14:10;;;;;;;3.60;3.30;;;11.60;1.00;;;;;;6255722;23;20405;-86
2024/04/02 07:16:37;;;;;;;6.90;3.87;;;11.70;1.00;;;;;;6256232;22;20401;-85
2024/04/02 07:19:05;;;;;;;4.43;3.27;;;11.80;1.00;;;;;;6256811;23;20406;-85
2024/04/02 07:21:31;;;;;;;4.43;3.90;;;11.80;1.00;;;;;;6257200;23;20376;-85
2024/04/02 07:23:58;;;;;;;3.73;3.07;;;11.80;1.00;;;;;;6272820;23;20386;-84
2024/04/02 07:26:24;;;;;;;7.20;3.00;;;11.90;1.00;;;;;;6270333;22;20703;-84
2024/04/02 07:28:51;;;;;;;4.67;3.60;;;11.90;1.00;;;;;;6255618;22;20432;-84
2024/04/02 07:31:16;;;;;;;5.03;3.70;;;12.00;1.00;;;;;;6255805;23;20728;-85
2024/04/02 07:33:45;;;;;;;8.03;3.30;;;12.10;1.00;;;;;;6254312;23;20410;-84
2024/04/02 07:36:11;;;;;;;3.50;3.20;;;12.10;1.00;;;;;;6254946;23;20209;-85
2024/04/02 07:38:38;;;;;;;5.63;2.97;;;12.10;1.00;;;;;;6258165;22;20401;-84
2024/04/02 07:41:04;;;;;;;3.63;3.30;;;12.10;1.00;;;;;;6257864;23;20391;-85
2024/04/02 07:43:31;;;;;;;5.73;3.53;;;12.30;1.00;;;;;;6257303;23;20401;-85
2024/04/02 07:45:56;;;;;;;3.10;2.90;;;12.20;1.00;;;;;;6258225;23;20436;-87
2024/04/02 07:48:23;;;;;;;7.80;3.23;;;12.20;1.00;;;;;;6259695;22;20441;-84
2024/04/02 07:50:51;;;;;;;3.40;3.20;;;12.40;1.00;;;;;;6255022;23;20488;-85
2024/04/02 07:53:17;;;;;;;3.70;3.40;;;12.50;1.00;;;;;;6255991;23;20494;-85
2024/04/02 07:55:44;;;;;;;3.70;3.37;;;12.40;1.00;;;;;;6256515;23;20383;-84
2024/04/02 07:58:11;;;;;;;3.57;3.27;;;12.40;1.00;;;;;;6265383;22;20501;-86
2024/04/02 08:00:38;;;;;;;3.40;3.10;;;12.30;1.00;;;;;;6260215;23;20380;-86
2024/04/02 08:03:05;;;;;;;5.80;3.70;;;12.30;1.00;;;;;;6258104;23;20409;-85
2024/04/02 08:05:31;;;;;;;6.07;3.63;;;12.20;1.00;;;;;;6258844;23;20433;-85
2024/04/02 08:08:00;;;;;;;5.57;3.70;;;12.00;1.00;;;;;;6259510;22;20441;-85
2024/04/02 08:10:25;;;;;;;3.60;3.07;;;12.10;1.00;;;;;;6260068;23;20408;-85
2024/04/02 08:12:52;;;;;;;3.80;3.50;;;12.10;1.00;;;;;;6262467;23;20397;-87
2024/04/02 08:15:18;;;;;;;4.70;3.43;;;12.10;1.00;;;;;;6258822;23;20409;-85
2024/04/02 08:17:45;;;;;;;4.33;2.73;;;12.00;1.00;;;;;;6262002;22;20392;-85
2024/04/02 08:20:11;;;;;;;4.10;3.27;;;12.10;1.00;;;;;;6259135;23;20407;-85
2024/04/02 08:22:38;;;;;;;3.20;3.00;;;12.30;1.00;;;;;;6256493;23;20401;-85
2024/04/02 08:25:07;;;;;;;8.47;3.27;;;12.50;1.00;;;;;;6256475;23;20401;-85
2024/04/02 08:27:34;;;;;;;4.20;3.53;;;12.60;1.00;;;;;;6256227;22;20441;-85
2024/04/02 08:30:00;;;;;;;3.17;2.80;;;12.50;1.00;;;;;;6258765;23;20384;-85
2024/04/02 08:32:26;;;;;;;4.00;2.83;;;12.60;1.00;;;;;;6259772;23;20400;-86
2024/04/02 08:34:52;;;;;;;3.27;2.97;;;12.60;1.00;;;;;;6258152;23;20388;-85
2024/04/02 08:37:19;;;;;;;6.30;2.70;;;12.70;1.00;;;;;;6257394;22;20399;-85
2024/04/02 08:39:45;;;;;;;7.80;3.70;;;12.70;1.00;;;;;;6256689;23;20519;-86
2024/04/02 08:42:14;;;;;;;4.73;3.27;;;12.70;1.00;;;;;;6256329;23;20401;-86
2024/04/02 08:44:42;;;;;;;2.70;2.50;;;12.70;1.00;;;;;;6256265;23;20406;-85
2024/04/02 08:47:09;;;;;;;3.00;2.67;;;13.00;1.00;;;;;;6259602;22;20779;-84
2024/04/02 08:49:36;;;;;;;7.83;3.00;;;13.20;1.00;;;;;;6255591;23;20501;-85
2024/04/02 08:52:03;;;;;;;3.23;2.77;;;13.20;1.00;;;;;;6256294;23;20473;-85
2024/04/02 08:54:30;;;;;;;4.17;2.80;;;13.20;1.00;;;;;;6270191;23;20405;-84
2024/04/02 08:56:58;;;;;;;2.47;2.27;;;13.00;1.00;;;;;;6273045;22;20421;-85
2024/04/02 08:59:28;;;;;;;2.80;2.10;;;12.90;1.00;;;;;;6270133;23;20409;-85
2024/04/02 09:01:58;;;;;;;4.00;2.10;;;13.00;1.00;;;;;;6270672;23;20430;-82
2024/04/02 09:04:25;;;;;;;3.20;1.70;;;13.00;1.00;;;;;;6273419;23;20400;-84
2024/04/02 09:06:52;;;;;;;2.53;1.93;;;13.10;1.00;;;;;;6273073;22;20404;-85
2024/04/02 09:09:21;;;;;;;3.33;2.40;;;13.30;1.00;;;;;;6274733;22;20389;-85
2024/04/02 09:11:49;;;;;;;4.20;3.60;;;13.30;1.00;;;;;;6271824;23;20476;-84
2024/04/02 09:14:15;;;;;;;3.10;2.80;;;13.20;99.90;;;;;;6274774;23;20457;-85
2024/04/02 09:16:44;;;;;;;2.43;2.33;;;13.00;99.90;;;;;;6274162;22;20385;-85
2024/04/02 09:19:10;;;;;;;2.23;2.03;;;13.00;99.90;;;;;;6268862;23;20409;-85
2024/04/02 09:21:37;;;;;;;2.70;1.50;;;13.00;99.90;;;;;;6265521;23;20396;-84
2024/04/02 09:24:03;;;;;;;2.10;2.00;;;13.20;99.90;;;;;;6261762;23;20209;-85
2024/04/02 09:26:30;;;;;;;4.37;2.50;;;13.40;99.90;;;;;;6259812;22;20401;-85
2024/04/02 09:28:56;;;;;;;3.10;2.30;;;13.60;99.90;;;;;;6259858;23;20926;-85
2024/04/02 09:31:24;;;;;;;1.93;1.70;;;13.70;99.90;;;;;;6258712;23;20443;-85
2024/04/02 09:33:52;;;;;;;2.33;1.83;;;13.40;99.90;;;;;;6258431;23;20794;-86
2024/04/02 09:36:39;;;;;;;2.60;2.33;;;13.30;99.90;;;;;;6258967;23;20413;-85
2024/04/02 09:39:06;;;;;;;1.80;1.70;;;13.30;99.90;;;;;;6259228;23;20377;-85
2024/04/02 09:41:35;;;;;;;2.70;1.47;;;13.40;99.90;;;;;;6260234;23;20467;-84
2024/04/02 09:44:02;;;;;;;1.83;1.40;;;13.30;99.90;;;;;;6260213;23;20459;-84
2024/04/02 09:46:30;;;;;;;2.93;2.10;;;13.30;99.90;;;;;;6258092;22;20488;-84
2024/04/02 09:49:00;;;;;;;3.30;1.50;;;13.40;99.90;;;;;;6255726;23;20963;-85
2024/04/02 09:51:27;;;;;;;4.60;3.07;;;13.40;99.90;;;;;;6256216;23;20399;-85
2024/04/02 09:53:57;;;;;;;2.50;1.30;;;13.70;99.90;;;;;;6256729;23;20398;-84
2024/04/02 09:56:26;;;;;;;4.17;2.17;;;13.80;99.90;;;;;;6258370;23;20386;-84
2024/04/02 09:58:53;;;;;;;5.67;2.37;;;13.60;99.90;;;;;;6263241;22;20488;-84
2024/04/02 10:01:27;;;;;;;3.43;2.50;;;13.50;99.90;;;;;;6274267;23;20405;-83
2024/04/02 10:03:57;;;;;;;2.30;2.03;;;13.50;99.90;;;;;;6266258;22;20390;-87
2024/04/02 10:06:25;;;;;;;6.97;1.63;;;13.40;99.90;;;;;;6260384;23;20401;-85
2024/04/02 10:08:59;;;;;;;3.37;2.00;;;13.50;99.90;;;;;;6272497;22;20467;-85
2024/04/02 10:11:38;;;;;;;3.00;1.90;;;13.50;99.90;;;;;;6274258;23;20417;-85
2024/04/02 10:14:07;;;;;;;6.00;1.80;;;13.60;99.90;;;;;;6274353;23;20392;-85
2024/04/02 10:16:34;;;;;;;1.50;1.40;;;13.80;99.90;;;;;;6273386;22;20493;-84
2024/04/02 10:19:02;;;;;;;3.10;1.53;;;13.80;99.90;;;;;;6275185;23;20404;-84
2024/04/02 10:21:36;;;;;;;5.43;1.87;;;13.90;99.90;;;;;;6275283;22;20393;-85
2024/04/02 10:24:08;;;;;;;1.30;1.20;;;13.70;99.90;;;;;;6263223;22;20417;-85
2024/04/02 10:26:40;;;;;;;3.10;1.97;;;13.70;99.90;;;;;;6261098;22;20860;-84
2024/04/02 10:29:07;;;;;;;6.63;1.80;;;13.70;99.90;;;;;;6257279;23;20942;-84
2024/04/02 10:31:39;;;;;;;2.80;2.10;;;13.50;99.90;;;;;;6257497;23;20440;-85
2024/04/02 10:34:10;;;;;;;2.10;1.93;;;13.40;99.90;;;;;;6256899;23;20435;-85
2024/04/02 10:36:38;;;;;;;3.53;1.70;;;13.20;99.90;;;;;;6260520;22;20374;-85
2024/04/02 10:39:10;;;;;;;6.77;2.43;;;13.20;99.90;;;;;;6271796;22;20415;-84
2024/04/02 10:41:37;;;;;;;3.33;2.13;;;13.40;99.90;;;;;;6266887;23;20397;-83
2024/04/02 10:44:04;;;;;;;3.90;1.87;;;13.80;99.90;;;;;;6262107;23;20436;-86
2024/04/02 10:46:30;;;;;;;3.53;2.57;;;13.90;99.90;;;;;;6255665;22;20401;-85
2024/04/02 10:48:58;;;;;;;2.33;2.13;;;13.90;99.90;;;;;;6255369;23;20412;-86
2024/04/02 10:51:26;;;;;;;2.33;1.63;;;13.80;99.90;;;;;;6255874;23;20466;-85
2024/04/02 10:53:54;;;;;;;2.53;1.50;;;14.00;99.90;;;;;;6254880;23;20409;-85
2024/04/02 10:56:21;;;;;;;2.50;1.70;;;14.00;99.90;;;;;;6255839;23;20402;-85
2024/04/02 10:58:49;;;;;;;2.70;1.70;;;13.90;99.90;;;;;;6255771;22;20421;-85
2024/04/02 11:01:15;;;;;;;4.73;1.83;;;13.90;99.90;;;;;;6254510;23;20458;-86
2024/04/02 11:03:43;;;;;;;3.30;1.70;;;13.90;99.90;;;;;;6256142;23;20423;-85
2024/04/02 11:06:10;;;;;;;3.00;2.00;;;14.20;99.90;;;;;;6257084;23;20391;-85
2024/04/02 11:08:37;;;;;;;1.70;1.60;;;14.20;99.90;;;;;;6253997;22;20412;-85
2024/04/02 11:11:04;;;;;;;4.57;2.00;;;14.20;99.90;;;;;;6257692;23;20739;-85
2024/04/02 11:13:31;;;;;;;5.03;1.73;;;14.20;99.90;;;;;;6256250;23;20459;-85
2024/04/02 11:15:58;;;;;;;3.03;2.07;;;14.00;99.90;;;;;;6255265;23;20402;-86
2024/04/02 11:18:25;;;;;;;3.73;2.03;;;14.30;99.90;;;;;;6254319;22;20428;-85
2024/04/02 11:20:56;;;;;;;6.23;2.67;;;14.40;99.90;;;;;;6254530;23;20484;-85
2024/04/02 11:26:15;;;;;;;2.17;1.97;;;14.70;99.90;;;;;;6256356;23;20347;-85
2024/04/02 11:28:42;;;;;;;3.03;1.53;;;14.40;99.90;;;;;;6255156;22;20475;-85
2024/04/02 11:31:08;;;;;;;3.43;1.70;;;14.00;99.90;;;;;;6255940;23;20413;-86
2024/04/02 11:33:35;;;;;;;2.80;2.20;;;13.90;99.90;;;;;;6258432;23;20401;-85
2024/04/02 11:36:02;;;;;;;6.23;2.03;;;13.80;99.90;;;;;;6263112;23;20379;-85
2024/04/02 11:38:28;;;;;;;5.30;1.83;;;13.80;99.90;;;;;;6273607;22;20400;-84
2024/04/02 11:40:56;;;;;;;5.73;2.80;;;13.70;99.90;;;;;;6273414;22;20397;-83
2024/04/02 11:43:24;;;;;;;3.07;2.03;;;13.90;99.90;;;;;;6273667;22;20383;-82
2024/04/02 11:45:52;;;;;;;2.20;1.90;;;13.80;99.90;;;;;;6272346;23;20425;-83
2024/04/02 11:48:18;;;;;;;4.47;2.07;;;13.80;99.90;;;;;;6271917;22;20432;-83
2024/04/02 11:50:46;;;;;;;1.93;1.77;;;13.90;99.90;;;;;;6264905;23;20463;-84
2024/04/02 11:53:12;;;;;;;2.13;1.80;;;14.10;99.90;;;;;;6259070;23;20516;-84
2024/04/02 11:55:41;;;;;;;1.50;1.40;;;14.30;99.90;;;;;;6255523;23;20401;-85
2024/04/02 12:00:54;;;;;;;3.40;1.67;;;14.30;99.90;;;;;;6255434;23;20373;-85
2024/04/02 12:03:21;;;;;;;2.57;2.00;;;14.30;99.90;;;;;;6255174;23;20405;-85
2024/04/02 12:05:49;;;;;;;2.30;1.60;;;14.40;99.90;;;;;;6256440;23;20427;-85
2024/04/02 12:08:15;;;;;;;2.30;2.10;;;14.20;99.90;;;;;;6253821;22;20445;-85
2024/04/02 12:10:42;;;;;;;2.40;1.90;;;14.20;99.90;;;;;;6253348;23;20401;-84
2024/04/02 12:13:08;;;;;;;3.00;1.80;;;14.30;99.90;;;;;;6254121;23;20441;-83
2024/04/02 12:15:35;;;;;;;2.10;1.97;;;14.50;99.90;;;;;;6254868;23;20412;-85
2024/04/02 12:18:02;;;;;;;2.83;1.97;;;14.60;99.90;;;;;;6254312;22;20424;-87
2024/04/02 12:20:29;;;;;;;3.93;2.03;;;14.90;99.90;;;;;;6254245;23;20405;-85
2024/04/02 12:22:55;;;;;;;4.43;1.70;;;14.90;99.90;;;;;;6254439;23;20412;-85
2024/04/02 12:25:22;;;;;;;5.63;2.13;;;14.70;99.90;;;;;;6257768;23;20899;-85
2024/04/02 12:27:52;;;;;;;1.70;1.60;;;14.70;99.90;;;;;;6264376;22;20253;-84
2024/04/02 12:30:19;;;;;;;1.87;1.43;;;14.20;99.90;;;;;;6258805;23;20376;-85
2024/04/02 12:32:45;;;;;;;3.70;1.47;;;14.20;99.90;;;;;;6260049;23;20406;-85
2024/04/02 12:35:14;;;;;;;2.63;1.90;;;14.10;99.90;;;;;;6255951;23;20432;-85
2024/04/02 12:37:39;;;;;;;2.80;1.57;;;14.10;99.90;;;;;;6256241;22;20453;-85
2024/04/02 12:40:07;;;;;;;4.60;2.47;;;14.00;99.90;;;;;;6256179;23;20410;-85
2024/04/02 12:42:33;;;;;;;2.27;2.07;;;13.90;99.90;;;;;;6256644;23;20375;-84
2024/04/02 12:45:00;;;;;;;2.40;2.20;;;13.30;1.00;;;;;;6257690;23;20401;-85
2024/04/02 12:47:26;;;;;;;5.17;2.23;;;13.10;1.00;;;;;;6255682;22;20205;-86
2024/04/02 12:49:53;;;;;;;4.13;2.30;;;13.10;1.00;;;;;;6263156;23;20389;-84
2024/04/02 12:52:20;;;;;;;3.10;2.10;;;13.10;1.00;;;;;;6255633;23;20236;-84
2024/04/02 12:54:47;;;;;;;2.13;1.80;;;13.60;99.90;;;;;;6255912;23;20501;-83
2024/04/02 12:57:13;;;;;;;1.83;1.73;;;14.00;99.90;;;;;;6258853;22;20429;-83
2024/04/02 12:59:40;;;;;;;2.27;1.87;;;14.20;99.90;;;;;;6259015;23;20416;-84
2024/04/02 13:02:06;;;;;;;3.60;2.20;;;14.30;99.90;;;;;;6258328;23;20178;-85
2024/04/02 13:04:33;;;;;;;2.10;1.93;;;14.40;99.90;;;;;;6255056;23;20515;-83
2024/04/02 13:06:58;;;;;;;4.20;2.30;;;14.30;99.90;;;;;;6256341;22;20436;-85
2024/04/02 13:09:29;;;;;;;1.90;1.80;;;14.20;99.90;;;;;;6256479;23;20428;-85
2024/04/02 13:11:55;;;;;;;3.83;2.30;;;13.90;99.90;;;;;;6256211;23;20397;-84
2024/04/02 13:14:21;;;;;;;2.00;1.80;;;13.80;99.90;;;;;;6266783;23;20352;-85
2024/04/02 13:16:47;;;;;;;3.20;2.10;;;13.80;99.90;;;;;;6275469;22;20180;-83
2024/04/02 13:19:15;;;;;;;2.43;2.27;;;14.10;99.90;;;;;;6274855;22;20447;-84
2024/04/02 13:21:41;;;;;;;5.07;2.40;;;14.20;99.90;;;;;;6273061;23;20178;-83
2024/04/02 13:24:09;;;;;;;2.40;2.20;;;14.30;99.90;;;;;;6273482;23;20386;-84
2024/04/02 13:26:36;;;;;;;4.60;2.17;;;14.20;99.90;;;;;;6265617;22;20413;-84
2024/04/02 13:29:05;;;;;;;2.60;2.40;;;14.00;99.90;;;;;;6260671;23;20501;-84
2024/04/02 13:31:31;;;;;;;2.70;2.50;;;14.00;99.90;;;;;;6259068;23;20387;-85
2024/04/02 13:34:01;;;;;;;3.87;2.43;;;14.10;99.90;;;;;;6259355;23;20429;-85
2024/04/02 13:36:27;;;;;;;2.20;2.00;;;14.10;99.90;;;;;;6257023;23;20417;-85